createdAt,value
2022-08-12T00:01:03.275Z,44.44
2022-08-12T00:03:50.296Z,44.25
2022-08-12T00:06:38.427Z,44.16
2022-08-12T00:09:26.387Z,44.17
2022-08-12T00:12:14.787Z,43.97
2022-08-12T00:15:03.096Z,44.19
2022-08-12T00:17:49.010Z,44.30
2022-08-12T00:20:36.991Z,43.49
2022-08-12T00:23:22.752Z,43.25
2022-08-12T00:26:22.583Z,43.42
2022-08-12T00:29:10.736Z,43.07
2022-08-12T00:32:01.399Z,42.94
2022-08-12T00:34:49.353Z,43.13
2022-08-12T00:37:35.750Z,43.29
2022-08-12T00:40:21.991Z,43.41
2022-08-12T00:42:49.314Z,43.26
2022-08-12T00:45:17.402Z,44.04
2022-08-12T00:47:47.551Z,43.87
2022-08-12T00:50:19.494Z,44.11
2022-08-12T00:52:49.483Z,43.99
2022-08-12T00:55:18.802Z,44.12
2022-08-12T00:57:49.278Z,44.25
2022-08-12T01:00:23.875Z,44.47
2022-08-12T01:02:58.119Z,44.43
2022-08-12T01:05:50.173Z,44.59
2022-08-12T01:08:35.907Z,44.24
2022-08-12T01:11:35.826Z,44.44
2022-08-12T01:14:04.405Z,44.26
2022-08-12T01:16:32.993Z,44.28
2022-08-12T01:19:03.253Z,44.47
2022-08-12T01:21:57.913Z,44.42
2022-08-12T01:24:57.528Z,44.68
2022-08-12T01:27:27.238Z,44.27
2022-08-12T01:29:58.266Z,44.31
2022-08-12T01:32:30.088Z,44.49
2022-08-12T01:35:07.065Z,44.49
2022-08-12T01:37:49.899Z,44.67
2022-08-12T01:40:33.262Z,44.73
2022-08-12T01:43:08.253Z,44.70
2022-08-12T01:45:43.307Z,44.95
2022-08-12T01:48:24.396Z,44.65
2022-08-12T01:51:06.444Z,45.41
2022-08-12T01:53:48.595Z,45.38
2022-08-12T01:56:26.194Z,45.37
2022-08-12T01:59:21.222Z,45.54
2022-08-12T02:01:54.271Z,45.90
2022-08-12T02:04:53.945Z,45.70
2022-08-12T02:07:58.351Z,45.76
2022-08-12T02:10:56.649Z,45.82
2022-08-12T02:13:49.682Z,45.92
2022-08-12T02:16:31.809Z,45.86
2022-08-12T02:19:22.504Z,45.79
2022-08-12T02:22:01.040Z,45.95
2022-08-12T02:24:35.297Z,46.03
2022-08-12T02:27:04.577Z,46.30
2022-08-12T02:29:34.553Z,46.64
2022-08-12T02:32:04.682Z,47.27
2022-08-12T02:34:34.503Z,47.11
2022-08-12T02:37:04.020Z,47.18
2022-08-12T02:39:34.697Z,47.16
2022-08-12T02:42:06.892Z,46.94
2022-08-12T02:44:43.447Z,46.90
2022-08-12T02:47:55.716Z,47.02
2022-08-12T02:50:04.816Z,47.02
2022-08-12T02:52:34.887Z,46.85
2022-08-12T02:55:12.897Z,47.13
2022-08-12T02:57:57.111Z,47.15
2022-08-12T03:00:28.710Z,47.40
2022-08-12T03:03:00.936Z,47.51
2022-08-12T03:05:30.080Z,47.89
2022-08-12T03:08:30.544Z,47.73
2022-08-12T03:11:04.738Z,47.78
2022-08-12T03:13:40.327Z,48.06
2022-08-12T03:16:10.946Z,48.11
2022-08-12T03:18:45.790Z,48.13
2022-08-12T03:21:55.386Z,48.37
2022-08-12T03:24:09.365Z,48.27
2022-08-12T03:26:38.825Z,48.43
2022-08-12T03:29:08.299Z,48.42
2022-08-12T03:31:37.944Z,48.66
2022-08-12T03:34:08.656Z,48.58
2022-08-12T03:36:38.420Z,48.86
2022-08-12T03:39:36.865Z,48.83
2022-08-12T03:42:17.672Z,49.15
2022-08-12T03:45:15.358Z,49.08
2022-08-12T03:48:18.555Z,49.39
2022-08-12T03:51:05.686Z,49.34
2022-08-12T03:53:51.030Z,49.27
2022-08-12T03:56:36.810Z,49.40
2022-08-12T03:59:25.502Z,49.18
2022-08-12T04:01:57.798Z,49.38
2022-08-12T04:04:34.050Z,49.44
2022-08-12T04:07:03.466Z,49.92
2022-08-12T04:09:32.316Z,50.25
2022-08-12T04:12:17.971Z,50.58
2022-08-12T04:14:46.990Z,50.49
2022-08-12T04:17:16.760Z,50.87
2022-08-12T04:19:48.383Z,50.83
2022-08-12T04:22:16.428Z,50.79
2022-08-12T04:24:50.711Z,50.54
2022-08-12T04:27:19.232Z,50.38
2022-08-12T04:30:29.015Z,50.33
2022-08-12T04:32:42.220Z,49.82
2022-08-12T04:35:15.173Z,49.68
2022-08-12T04:37:58.451Z,49.17
2022-08-12T04:40:30.882Z,48.37
2022-08-12T04:43:01.576Z,48.16
2022-08-12T04:45:31.210Z,47.92
2022-08-12T04:47:59.247Z,47.27
2022-08-12T04:50:35.081Z,46.82
2022-08-12T04:53:06.675Z,46.45
2022-08-12T04:55:38.452Z,46.33
2022-08-12T04:58:06.706Z,45.80
2022-08-12T05:00:35.472Z,46.24
2022-08-12T05:03:03.718Z,46.16
2022-08-12T05:05:36.126Z,45.83
2022-08-12T05:08:07.924Z,45.65
2022-08-12T05:10:36.394Z,45.55
2022-08-12T05:13:08.387Z,45.28
2022-08-12T05:16:04.739Z,45.02
2022-08-12T05:18:29.331Z,45.11
2022-08-12T05:21:00.333Z,44.85
2022-08-12T05:23:29.112Z,44.81
2022-08-12T05:25:57.964Z,44.46
2022-08-12T05:28:28.087Z,43.86
2022-08-12T05:30:57.175Z,43.87
2022-08-12T05:33:37.587Z,43.77
2022-08-12T05:36:09.230Z,42.98
2022-08-12T05:38:55.804Z,42.63
2022-08-12T05:41:25.708Z,42.29
2022-08-12T05:43:55.831Z,42.35
2022-08-12T05:46:25.483Z,42.54
2022-08-12T05:48:55.501Z,42.72
2022-08-12T05:51:39.520Z,41.84
2022-08-12T05:54:10.596Z,41.14
2022-08-12T05:56:40.194Z,40.45
2022-08-12T05:59:11.518Z,40.07
2022-08-12T06:02:08.853Z,39.86
2022-08-12T06:04:29.025Z,40.23
2022-08-12T06:06:58.288Z,40.37
2022-08-12T06:09:31.073Z,40.11
2022-08-12T06:12:05.695Z,40.14
2022-08-12T06:14:37.792Z,40.24
2022-08-12T06:17:08.873Z,39.65
2022-08-12T06:20:26.731Z,38.84
2022-08-12T06:22:27.791Z,39.67
2022-08-12T06:24:56.048Z,38.99
2022-08-12T06:27:24.940Z,38.27
2022-08-12T06:30:09.013Z,38.14
2022-08-12T06:32:51.710Z,37.93
2022-08-12T06:35:48.867Z,38.14
2022-08-12T06:38:27.164Z,38.22
2022-08-12T06:41:14.844Z,37.25
2022-08-12T06:44:06.574Z,37.16
2022-08-12T06:46:32.964Z,36.98
2022-08-12T06:49:01.794Z,36.71
2022-08-12T06:51:34.758Z,35.90
2022-08-12T06:54:05.155Z,35.68
2022-08-12T06:57:02.435Z,35.46
2022-08-12T06:59:23.623Z,35.22
2022-08-12T07:01:52.575Z,34.61
2022-08-12T07:04:39.067Z,34.60
2022-08-12T07:07:09.568Z,34.71
2022-08-12T07:10:06.908Z,33.81
2022-08-12T07:12:33.034Z,33.50
2022-08-12T07:15:02.422Z,32.58
2022-08-12T07:17:38.023Z,32.54
2022-08-12T07:20:20.249Z,32.55
2022-08-12T07:23:01.014Z,32.15
2022-08-12T07:25:40.323Z,31.31
2022-08-12T07:28:16.033Z,31.20
2022-08-12T07:30:48.401Z,30.66
2022-08-12T07:33:17.921Z,30.99
2022-08-12T07:35:48.046Z,31.30
2022-08-12T07:38:29.120Z,30.18
2022-08-12T07:41:04.094Z,29.78
2022-08-12T07:43:33.795Z,30.09
2022-08-12T07:46:05.381Z,30.04
2022-08-12T07:48:37.987Z,29.20
2022-08-12T07:51:06.811Z,30.11
2022-08-12T07:53:49.128Z,29.51
2022-08-12T07:56:25.531Z,29.56
2022-08-12T07:58:54.071Z,29.22
2022-08-12T08:01:23.869Z,29.19
2022-08-12T08:04:15.111Z,28.91
2022-08-12T08:06:46.124Z,28.74
2022-08-12T08:09:19.544Z,29.11
2022-08-12T08:12:06.873Z,28.75
2022-08-12T08:14:35.374Z,27.99
2022-08-12T08:17:06.568Z,26.76
2022-08-12T08:20:03.206Z,27.28
2022-08-12T08:22:32.101Z,25.95
2022-08-12T08:25:34.844Z,25.99
2022-08-12T08:28:02.766Z,26.48
2022-08-12T08:30:32.338Z,26.41
2022-08-12T08:33:00.763Z,25.09
2022-08-12T08:35:46.270Z,24.07
2022-08-12T08:38:32.475Z,24.32
2022-08-12T08:42:15.318Z,23.58
2022-08-12T08:44:12.552Z,23.76
2022-08-12T08:46:40.887Z,24.39
2022-08-12T08:49:09.153Z,24.37
2022-08-12T08:51:38.626Z,24.52
2022-08-12T08:54:08.969Z,25.04
2022-08-12T08:56:44.095Z,25.40
2022-08-12T08:59:14.667Z,25.54
2022-08-12T09:01:44.197Z,25.37
2022-08-12T09:05:13.567Z,25.56
2022-08-12T09:07:17.897Z,25.25
2022-08-12T09:10:03.739Z,25.20
2022-08-12T09:12:54.643Z,25.63
2022-08-12T09:15:35.604Z,25.08
2022-08-12T09:18:05.977Z,25.45
2022-08-12T09:20:39.152Z,25.34
2022-08-12T09:23:59.028Z,25.51
2022-08-12T09:26:04.511Z,25.13
2022-08-12T09:28:37.765Z,25.01
2022-08-12T09:32:03.568Z,24.91
2022-08-12T09:34:29.835Z,24.82
2022-08-12T09:36:58.008Z,24.76
2022-08-12T09:40:06.285Z,24.83
2022-08-12T09:42:43.544Z,25.25
2022-08-12T09:45:24.671Z,23.89
2022-08-12T09:48:20.148Z,24.74
2022-08-12T09:50:55.302Z,24.55
2022-08-12T09:53:29.510Z,24.50
2022-08-12T09:56:57.995Z,23.32
2022-08-12T09:59:01.441Z,22.82
2022-08-12T10:01:35.324Z,22.99
2022-08-12T10:04:20.867Z,25.05
2022-08-12T10:06:54.729Z,25.68
2022-08-12T10:09:28.959Z,24.04
2022-08-12T10:12:33.072Z,22.26
2022-08-12T10:15:01.847Z,21.21
2022-08-12T10:17:30.375Z,20.98
2022-08-12T10:20:01.577Z,21.13
2022-08-12T10:22:39.475Z,20.74
2022-08-12T10:26:34.883Z,19.88
2022-08-12T10:28:32.503Z,18.79
2022-08-12T10:31:01.237Z,19.44
2022-08-12T10:33:32.247Z,17.96
2022-08-12T10:36:05.173Z,18.30
2022-08-12T10:38:41.335Z,18.61
2022-08-12T10:41:57.145Z,18.29
2022-08-12T10:44:21.392Z,17.74
2022-08-12T10:46:52.815Z,16.92
2022-08-12T10:50:03.519Z,16.74
2022-08-12T10:52:33.881Z,16.09
2022-08-12T10:55:00.542Z,19.66
2022-08-12T10:58:12.573Z,17.91
2022-08-12T11:00:31.982Z,17.44
2022-08-12T11:04:24.246Z,18.70
2022-08-12T11:07:09.832Z,19.25
2022-08-12T11:08:46.175Z,18.07
2022-08-12T11:12:07.794Z,18.11
2022-08-12T11:14:09.124Z,17.99
2022-08-12T11:17:33.679Z,17.73
2022-08-12T11:19:49.401Z,19.05
2022-08-12T11:22:23.983Z,19.45
2022-08-12T11:24:55.269Z,20.69
2022-08-12T11:27:23.901Z,20.28
2022-08-12T11:30:03.737Z,19.88
2022-08-12T11:32:39.084Z,18.15
2022-08-12T11:35:09.173Z,16.60
2022-08-12T11:37:58.108Z,16.48
2022-08-12T11:40:29.789Z,15.53
2022-08-12T11:43:18.912Z,14.64
2022-08-12T11:45:53.100Z,13.95
2022-08-12T11:48:27.183Z,14.92
2022-08-12T11:50:56.129Z,14.57
2022-08-12T11:53:59.519Z,13.66
2022-08-12T11:56:13.668Z,12.60
2022-08-12T12:01:59.080Z,13.54
2022-08-12T12:04:29.096Z,13.51
2022-08-12T12:07:07.312Z,13.55
2022-08-12T12:09:51.819Z,13.14
2022-08-12T12:12:25.354Z,14.11
2022-08-12T12:14:54.641Z,13.38
2022-08-12T12:17:24.411Z,12.33
2022-08-12T12:19:53.274Z,11.26
2022-08-12T12:22:23.699Z,11.76
2022-08-12T12:24:59.339Z,14.05
2022-08-12T12:28:03.882Z,14.42
2022-08-12T12:30:33.667Z,13.51
2022-08-12T12:33:02.182Z,14.07
2022-08-12T12:36:18.298Z,14.07
2022-08-12T12:38:20.100Z,13.76
2022-08-12T12:40:53.416Z,14.09
2022-08-12T12:43:28.473Z,12.87
2022-08-12T12:46:05.440Z,13.03
2022-08-12T12:48:33.983Z,12.88
2022-08-12T12:51:49.185Z,12.54
2022-08-12T12:54:09.679Z,13.52
2022-08-12T12:56:42.278Z,13.07
2022-08-12T12:59:55.512Z,13.43
2022-08-12T13:02:08.179Z,12.42
2022-08-12T13:04:38.240Z,15.39
2022-08-12T13:07:07.084Z,14.32
2022-08-12T13:09:36.121Z,14.75
2022-08-12T13:12:10.946Z,17.23
2022-08-12T13:14:40.457Z,15.12
2022-08-12T13:17:14.568Z,13.89
2022-08-12T13:19:46.611Z,14.33
2022-08-12T13:22:20.041Z,12.50
2022-08-12T13:24:51.911Z,11.05
2022-08-12T13:27:23.113Z,12.82
2022-08-12T13:30:03.626Z,11.73
2022-08-12T13:32:32.072Z,11.89
2022-08-12T13:35:04.716Z,12.26
2022-08-12T13:37:55.155Z,12.91
2022-08-12T13:40:24.881Z,12.26
2022-08-12T13:42:57.607Z,12.25
2022-08-12T13:45:29.100Z,12.33
2022-08-12T13:47:59.948Z,12.30
2022-08-12T13:50:32.585Z,11.60
2022-08-12T13:53:06.274Z,12.71
2022-08-12T13:55:59.740Z,15.51
2022-08-12T13:58:32.934Z,17.50
2022-08-12T14:01:06.139Z,19.79
2022-08-12T14:03:50.916Z,19.80
2022-08-12T14:06:20.824Z,19.59
2022-08-12T14:08:50.578Z,15.71
2022-08-12T14:11:25.140Z,13.54
2022-08-12T14:14:03.829Z,11.67
2022-08-12T14:16:49.411Z,11.99
2022-08-12T14:19:24.398Z,14.47
2022-08-12T14:22:00.793Z,15.89
2022-08-12T14:24:40.560Z,13.21
2022-08-12T14:27:11.269Z,10.73
2022-08-12T14:30:04.483Z,12.65
2022-08-12T14:32:34.947Z,14.40
2022-08-12T14:35:08.966Z,13.01
2022-08-12T14:37:56.236Z,13.05
2022-08-12T14:40:29.210Z,14.08
2022-08-12T14:42:58.338Z,14.81
2022-08-12T14:45:45.424Z,16.60
2022-08-12T14:48:18.875Z,17.50
2022-08-12T14:52:10.475Z,16.64
2022-08-12T14:54:55.858Z,16.73
2022-08-12T14:59:57.420Z,15.68
2022-08-12T15:02:21.227Z,17.29
2022-08-12T15:04:55.940Z,18.60
2022-08-12T15:07:33.426Z,17.48
2022-08-12T15:10:13.551Z,14.76
2022-08-12T15:12:41.624Z,13.53
2022-08-12T15:15:11.276Z,12.38
2022-08-12T15:17:39.848Z,12.20
2022-08-12T15:20:32.918Z,11.64
2022-08-12T15:22:59.897Z,14.98
2022-08-12T15:25:28.726Z,15.47
2022-08-12T15:28:04.392Z,14.74
2022-08-12T15:30:37.061Z,14.96
2022-08-12T15:33:12.743Z,15.89
2022-08-12T15:35:50.279Z,17.58
2022-08-12T15:38:24.664Z,19.58
2022-08-12T15:40:53.916Z,20.81
2022-08-12T15:43:52.135Z,20.91
2022-08-12T15:46:15.170Z,20.80
2022-08-12T15:48:46.692Z,21.10
2022-08-12T15:51:57.314Z,20.86
2022-08-12T15:54:33.914Z,20.44
2022-08-12T15:57:08.154Z,17.81
2022-08-12T16:00:03.801Z,16.46
2022-08-12T16:02:29.466Z,14.68
2022-08-12T16:04:59.032Z,15.57
2022-08-12T16:07:30.967Z,17.33
2022-08-12T16:10:05.886Z,18.29
2022-08-12T16:12:39.634Z,18.25
2022-08-12T16:15:08.745Z,18.31
2022-08-12T16:18:09.064Z,19.18
2022-08-12T16:20:33.204Z,19.77
2022-08-12T16:23:36.372Z,18.83
2022-08-12T16:26:06.331Z,18.60
2022-08-12T16:28:43.942Z,19.54
2022-08-12T16:31:22.656Z,19.86
2022-08-12T16:33:58.818Z,20.19
2022-08-12T16:36:30.146Z,19.93
2022-08-12T16:39:02.758Z,20.18
2022-08-12T16:41:37.813Z,20.32
2022-08-12T16:44:08.368Z,18.72
2022-08-12T16:46:37.590Z,17.82
2022-08-12T16:49:09.086Z,18.48
2022-08-12T16:51:46.729Z,19.17
2022-08-12T16:54:18.592Z,18.63
2022-08-12T16:56:54.640Z,19.31
2022-08-12T16:59:52.972Z,20.31
2022-08-12T17:02:18.019Z,19.63
2022-08-12T17:05:04.254Z,19.03
2022-08-12T17:07:36.671Z,20.04
2022-08-12T17:10:09.364Z,20.38
2022-08-12T17:12:40.954Z,19.88
2022-08-12T17:15:41.310Z,18.57
2022-08-12T17:18:42.483Z,17.82
2022-08-12T17:20:49.510Z,17.08
2022-08-12T17:23:19.620Z,17.05
2022-08-12T17:25:53.397Z,17.62
2022-08-12T17:28:22.557Z,17.42
2022-08-12T17:30:59.566Z,17.70
2022-08-12T17:33:33.553Z,18.21
2022-08-12T17:36:05.884Z,18.97
2022-08-12T17:38:35.924Z,18.98
2022-08-12T17:41:23.174Z,19.61
2022-08-12T17:43:58.909Z,19.97
2022-08-12T17:46:33.119Z,20.81
2022-08-12T17:49:18.952Z,20.31
2022-08-12T17:52:02.925Z,20.26
2022-08-12T17:54:32.724Z,20.89
2022-08-12T17:57:16.029Z,20.58
2022-08-12T17:59:48.741Z,20.64
2022-08-12T18:02:29.944Z,20.67
2022-08-12T18:05:04.789Z,20.87
2022-08-12T18:07:39.503Z,21.15
2022-08-12T18:10:08.722Z,21.20
2022-08-12T18:12:38.746Z,21.30
2022-08-12T18:15:11.674Z,22.00
2022-08-12T18:17:59.303Z,22.34
2022-08-12T18:20:29.766Z,22.67
2022-08-12T18:23:01.208Z,22.89
2022-08-12T18:26:14.281Z,23.13
2022-08-12T18:28:43.066Z,23.44
2022-08-12T18:31:13.748Z,23.94
2022-08-12T18:33:44.139Z,24.26
2022-08-12T18:36:22.437Z,24.39
2022-08-12T18:38:56.102Z,25.05
2022-08-12T18:41:34.220Z,25.49
2022-08-12T18:44:09.771Z,26.14
2022-08-12T18:46:54.270Z,26.62
2022-08-12T18:49:39.112Z,26.84
2022-08-12T18:52:11.877Z,27.43
2022-08-12T18:54:48.955Z,27.48
2022-08-12T18:58:06.858Z,27.93
2022-08-12T19:00:21.494Z,28.41
2022-08-12T19:02:51.992Z,28.37
2022-08-12T19:05:53.114Z,28.94
2022-08-12T19:08:13.991Z,29.20
2022-08-12T19:10:50.431Z,29.19
2022-08-12T19:13:39.020Z,29.70
2022-08-12T19:16:11.386Z,29.89
2022-08-12T19:18:44.502Z,29.93
2022-08-12T19:21:15.949Z,30.19
2022-08-12T19:24:05.936Z,30.18
2022-08-12T19:26:34.935Z,30.37
2022-08-12T19:29:05.198Z,30.48
2022-08-12T19:32:03.648Z,30.65
2022-08-12T19:37:38.562Z,30.83
2022-08-12T19:40:30.771Z,31.08
2022-08-12T19:43:02.275Z,31.02
2022-08-12T19:45:48.893Z,31.44
2022-08-12T19:48:19.327Z,31.70
2022-08-12T19:50:52.288Z,31.91
2022-08-12T19:53:22.745Z,32.42
2022-08-12T19:55:53.491Z,32.80
2022-08-12T19:58:23.265Z,33.12
2022-08-12T20:00:54.424Z,33.31
2022-08-12T20:03:40.082Z,33.66
2022-08-12T20:06:21.689Z,33.72
2022-08-12T20:08:56.675Z,34.06
2022-08-12T20:12:09.854Z,34.47
2022-08-12T20:14:17.732Z,34.65
2022-08-12T20:16:52.020Z,34.99
2022-08-12T20:19:52.413Z,36.02
2022-08-12T20:22:23.964Z,37.54
2022-08-12T20:24:55.275Z,37.93
2022-08-12T20:27:29.248Z,37.79
2022-08-12T20:30:14.959Z,37.91
2022-08-12T20:32:54.244Z,37.74
2022-08-12T20:35:24.679Z,37.70
2022-08-12T20:38:07.404Z,37.65
2022-08-12T20:40:48.034Z,37.63
2022-08-12T20:43:19.170Z,37.94
2022-08-12T20:45:57.613Z,38.11
2022-08-12T20:48:29.444Z,37.80
2022-08-12T20:51:04.328Z,38.00
2022-08-12T20:53:58.324Z,37.87
2022-08-12T20:56:30.848Z,38.00
2022-08-12T20:59:01.536Z,38.37
2022-08-12T21:01:46.925Z,38.55
2022-08-12T21:04:35.224Z,38.15
2022-08-12T21:07:09.371Z,38.16
2022-08-12T21:09:42.440Z,38.65
2022-08-12T21:12:37.508Z,38.62
2022-08-12T21:15:23.079Z,38.48
2022-08-12T21:18:09.000Z,38.49
2022-08-12T21:20:50.186Z,38.49
2022-08-12T21:23:21.443Z,38.56
2022-08-12T21:25:52.562Z,38.97
2022-08-12T21:28:27.657Z,38.84
2022-08-12T21:32:35.472Z,38.97
2022-08-12T21:34:07.886Z,38.82
2022-08-12T21:36:43.304Z,38.79
2022-08-12T21:39:21.350Z,39.31
2022-08-12T21:41:52.938Z,39.22
2022-08-12T21:44:24.472Z,39.47
2022-08-12T21:47:21.125Z,39.18
2022-08-12T21:50:02.246Z,39.49
2022-08-12T21:52:36.486Z,39.38
2022-08-12T21:55:08.453Z,39.39
2022-08-12T21:57:53.275Z,39.65
2022-08-12T22:00:35.185Z,39.78
2022-08-12T22:04:01.394Z,39.84
2022-08-12T22:06:31.286Z,40.41
2022-08-12T22:09:15.804Z,40.41
2022-08-12T22:11:57.006Z,40.48
2022-08-12T22:14:30.200Z,40.84
2022-08-12T22:17:01.279Z,41.08
2022-08-12T22:19:34.892Z,40.93
2022-08-12T22:22:05.169Z,41.31
2022-08-12T22:24:33.899Z,41.33
2022-08-12T22:27:07.938Z,41.89
2022-08-12T22:30:11.224Z,41.58
2022-08-12T22:32:50.162Z,42.04
2022-08-12T22:35:55.783Z,41.95
2022-08-12T22:38:25.363Z,42.05
2022-08-12T22:40:55.052Z,41.87
2022-08-12T22:43:58.810Z,41.91
2022-08-12T22:46:52.761Z,42.10
2022-08-12T22:49:37.390Z,42.45
2022-08-12T22:52:12.263Z,42.62
2022-08-12T22:54:59.911Z,42.25
2022-08-12T22:57:49.286Z,42.62
2022-08-12T23:00:27.213Z,42.42
2022-08-12T23:03:03.008Z,42.87
2022-08-12T23:05:56.550Z,42.57
2022-08-12T23:08:22.601Z,42.88
2022-08-12T23:10:53.520Z,42.81
2022-08-12T23:13:43.750Z,42.87
2022-08-12T23:16:28.152Z,42.87
2022-08-12T23:19:11.035Z,42.87
2022-08-12T23:22:04.870Z,42.92
2022-08-12T23:24:55.869Z,42.96
2022-08-12T23:27:51.703Z,42.75
2022-08-12T23:30:32.230Z,43.08
2022-08-12T23:33:13.522Z,42.92
2022-08-12T23:35:58.953Z,43.09
2022-08-12T23:38:32.668Z,43.36
2022-08-12T23:41:02.406Z,43.45
2022-08-12T23:43:39.008Z,44.00
2022-08-12T23:46:10.996Z,44.15
2022-08-12T23:48:40.964Z,44.23
2022-08-12T23:51:22.749Z,44.25
2022-08-12T23:54:00.104Z,44.21
2022-08-12T23:56:29.304Z,44.33
2022-08-12T23:58:58.675Z,44.12
